sensor_id;sensor_type;location;lat;lon;timestamp;P1;durP1;ratioP1;P2;durP2;ratioP2
77379;SDS011;66439;50.106;10.996;2023-07-29T00:01:39;0.20;;;0.20;;
77379;SDS011;66439;50.106;10.996;2023-07-29T00:03:43;0.10;;;0.10;;
77379;SDS011;66439;50.106;10.996;2023-07-29T00:05:47;0.20;;;0.20;;
77379;SDS011;66439;50.106;10.996;2023-07-29T00:07:50;0.20;;;0.20;;
77379;SDS011;66439;50.106;10.996;2023-07-29T00:09:52;0.30;;;0.30;;
77379;SDS011;66439;50.106;10.996;2023-07-29T00:11:55;0.20;;;0.20;;
77379;SDS011;66439;50.106;10.996;2023-07-29T00:13:57;0.20;;;0.20;;
77379;SDS011;66439;50.106;10.996;2023-07-29T00:16:01;0.50;;;0.50;;
77379;SDS011;66439;50.106;10.996;2023-07-29T00:18:04;0.40;;;0.40;;
77379;SDS011;66439;50.106;10.996;2023-07-29T00:20:07;0.50;;;0.50;;
77379;SDS011;66439;50.106;10.996;2023-07-29T00:22:11;0.10;;;0.10;;
77379;SDS011;66439;50.106;10.996;2023-07-29T00:24:13;0.20;;;0.20;;
77379;SDS011;66439;50.106;10.996;2023-07-29T00:26:16;0.40;;;0.40;;
77379;SDS011;66439;50.106;10.996;2023-07-29T00:28:18;0.20;;;0.20;;
77379;SDS011;66439;50.106;10.996;2023-07-29T00:30:25;0.20;;;0.20;;
77379;SDS011;66439;50.106;10.996;2023-07-29T00:32:29;0.10;;;0.10;;
77379;SDS011;66439;50.106;10.996;2023-07-29T00:34:32;0.20;;;0.20;;
77379;SDS011;66439;50.106;10.996;2023-07-29T00:39:14;0.10;;;0.10;;
77379;SDS011;66439;50.106;10.996;2023-07-29T00:41:17;0.20;;;0.20;;
77379;SDS011;66439;50.106;10.996;2023-07-29T00:43:20;0.20;;;0.20;;
77379;SDS011;66439;50.106;10.996;2023-07-29T00:45:23;0.20;;;0.20;;
77379;SDS011;66439;50.106;10.996;2023-07-29T00:47:28;0.20;;;0.20;;
77379;SDS011;66439;50.106;10.996;2023-07-29T00:49:31;0.10;;;0.10;;
77379;SDS011;66439;50.106;10.996;2023-07-29T00:51:34;0.40;;;0.40;;
77379;SDS011;66439;50.106;10.996;2023-07-29T00:53:37;0.40;;;0.40;;
77379;SDS011;66439;50.106;10.996;2023-07-29T00:55:41;0.10;;;0.10;;
77379;SDS011;66439;50.106;10.996;2023-07-29T00:57:45;0.30;;;0.30;;
77379;SDS011;66439;50.106;10.996;2023-07-29T00:59:51;0.10;;;0.10;;
77379;SDS011;66439;50.106;10.996;2023-07-29T01:01:55;0.10;;;0.10;;
77379;SDS011;66439;50.106;10.996;2023-07-29T01:03:58;0.20;;;0.20;;
77379;SDS011;66439;50.106;10.996;2023-07-29T01:13:48;0.20;;;0.20;;
77379;SDS011;66439;50.106;10.996;2023-07-29T01:16:04;0.20;;;0.20;;
77379;SDS011;66439;50.106;10.996;2023-07-29T01:18:41;0.10;;;0.10;;
77379;SDS011;66439;50.106;10.996;2023-07-29T01:20:52;0.20;;;0.20;;
77379;SDS011;66439;50.106;10.996;2023-07-29T01:22:56;0.10;;;0.10;;
77379;SDS011;66439;50.106;10.996;2023-07-29T01:24:59;0.10;;;0.10;;
77379;SDS011;66439;50.106;10.996;2023-07-29T01:27:02;0.20;;;0.20;;
77379;SDS011;66439;50.106;10.996;2023-07-29T01:29:07;0.00;;;0.00;;
77379;SDS011;66439;50.106;10.996;2023-07-29T01:33:37;0.10;;;0.10;;
77379;SDS011;66439;50.106;10.996;2023-07-29T01:35:47;0.00;;;0.00;;
77379;SDS011;66439;50.106;10.996;2023-07-29T01:37:54;0.00;;;0.00;;
77379;SDS011;66439;50.106;10.996;2023-07-29T01:40:05;0.10;;;0.10;;
77379;SDS011;66439;50.106;10.996;2023-07-29T01:42:11;0.10;;;0.10;;
77379;SDS011;66439;50.106;10.996;2023-07-29T01:44:14;0.60;;;0.60;;
77379;SDS011;66439;50.106;10.996;2023-07-29T01:46:18;0.20;;;0.20;;
77379;SDS011;66439;50.106;10.996;2023-07-29T01:48:23;0.20;;;0.20;;
77379;SDS011;66439;50.106;10.996;2023-07-29T01:50:26;0.20;;;0.20;;
77379;SDS011;66439;50.106;10.996;2023-07-29T01:52:28;0.20;;;0.20;;
77379;SDS011;66439;50.106;10.996;2023-07-29T01:54:31;0.20;;;0.20;;
77379;SDS011;66439;50.106;10.996;2023-07-29T01:56:34;0.20;;;0.20;;
77379;SDS011;66439;50.106;10.996;2023-07-29T01:58:37;0.40;;;0.40;;
77379;SDS011;66439;50.106;10.996;2023-07-29T02:00:39;0.10;;;0.10;;
77379;SDS011;66439;50.106;10.996;2023-07-29T02:02:42;0.30;;;0.30;;
77379;SDS011;66439;50.106;10.996;2023-07-29T02:04:45;0.20;;;0.20;;
77379;SDS011;66439;50.106;10.996;2023-07-29T02:06:53;0.10;;;0.10;;
77379;SDS011;66439;50.106;10.996;2023-07-29T02:08:57;0.20;;;0.20;;
77379;SDS011;66439;50.106;10.996;2023-07-29T02:11:14;0.10;;;0.10;;
77379;SDS011;66439;50.106;10.996;2023-07-29T02:13:16;0.20;;;0.20;;
77379;SDS011;66439;50.106;10.996;2023-07-29T02:15:19;0.30;;;0.30;;
77379;SDS011;66439;50.106;10.996;2023-07-29T02:17:22;0.10;;;0.10;;
77379;SDS011;66439;50.106;10.996;2023-07-29T02:19:25;0.10;;;0.10;;
77379;SDS011;66439;50.106;10.996;2023-07-29T02:21:28;0.30;;;0.30;;
77379;SDS011;66439;50.106;10.996;2023-07-29T02:23:30;0.20;;;0.20;;
77379;SDS011;66439;50.106;10.996;2023-07-29T02:25:35;0.20;;;0.20;;
77379;SDS011;66439;50.106;10.996;2023-07-29T02:27:38;0.50;;;0.50;;
77379;SDS011;66439;50.106;10.996;2023-07-29T02:29:41;0.60;;;0.60;;
77379;SDS011;66439;50.106;10.996;2023-07-29T02:31:44;0.10;;;0.10;;
77379;SDS011;66439;50.106;10.996;2023-07-29T02:33:47;0.20;;;0.20;;
77379;SDS011;66439;50.106;10.996;2023-07-29T02:35:50;0.30;;;0.30;;
77379;SDS011;66439;50.106;10.996;2023-07-29T02:37:53;0.10;;;0.10;;
77379;SDS011;66439;50.106;10.996;2023-07-29T02:39:57;0.20;;;0.20;;
77379;SDS011;66439;50.106;10.996;2023-07-29T02:42:00;0.20;;;0.20;;
77379;SDS011;66439;50.106;10.996;2023-07-29T02:44:03;0.40;;;0.40;;
77379;SDS011;66439;50.106;10.996;2023-07-29T02:46:07;0.20;;;0.20;;
77379;SDS011;66439;50.106;10.996;2023-07-29T02:48:10;0.30;;;0.30;;
77379;SDS011;66439;50.106;10.996;2023-07-29T02:50:12;0.20;;;0.20;;
77379;SDS011;66439;50.106;10.996;2023-07-29T02:52:15;0.30;;;0.30;;
77379;SDS011;66439;50.106;10.996;2023-07-29T02:54:17;0.20;;;0.20;;
77379;SDS011;66439;50.106;10.996;2023-07-29T02:56:20;0.20;;;0.20;;
77379;SDS011;66439;50.106;10.996;2023-07-29T02:58:23;0.70;;;0.70;;
77379;SDS011;66439;50.106;10.996;2023-07-29T03:00:26;0.20;;;0.20;;
77379;SDS011;66439;50.106;10.996;2023-07-29T03:02:28;1.00;;;1.00;;
77379;SDS011;66439;50.106;10.996;2023-07-29T03:04:31;0.40;;;0.40;;
77379;SDS011;66439;50.106;10.996;2023-07-29T03:06:35;0.50;;;0.50;;
77379;SDS011;66439;50.106;10.996;2023-07-29T03:08:38;0.40;;;0.40;;
77379;SDS011;66439;50.106;10.996;2023-07-29T03:10:41;0.10;;;0.10;;
77379;SDS011;66439;50.106;10.996;2023-07-29T03:12:44;0.30;;;0.30;;
77379;SDS011;66439;50.106;10.996;2023-07-29T03:14:48;0.10;;;0.10;;
77379;SDS011;66439;50.106;10.996;2023-07-29T03:16:51;0.10;;;0.10;;
77379;SDS011;66439;50.106;10.996;2023-07-29T03:18:54;0.20;;;0.20;;
77379;SDS011;66439;50.106;10.996;2023-07-29T03:20:57;0.20;;;0.20;;
77379;SDS011;66439;50.106;10.996;2023-07-29T03:23:00;0.20;;;0.20;;
77379;SDS011;66439;50.106;10.996;2023-07-29T03:25:05;0.30;;;0.30;;
77379;SDS011;66439;50.106;10.996;2023-07-29T03:27:08;0.30;;;0.30;;
77379;SDS011;66439;50.106;10.996;2023-07-29T03:29:12;0.30;;;0.30;;
77379;SDS011;66439;50.106;10.996;2023-07-29T03:31:14;0.20;;;0.20;;
77379;SDS011;66439;50.106;10.996;2023-07-29T03:33:17;0.40;;;0.40;;
77379;SDS011;66439;50.106;10.996;2023-07-29T03:35:20;0.20;;;0.20;;
77379;SDS011;66439;50.106;10.996;2023-07-29T03:37:24;0.10;;;0.10;;
77379;SDS011;66439;50.106;10.996;2023-07-29T03:39:26;0.30;;;0.30;;
77379;SDS011;66439;50.106;10.996;2023-07-29T03:41:29;0.10;;;0.10;;
77379;SDS011;66439;50.106;10.996;2023-07-29T03:43:32;0.40;;;0.40;;
77379;SDS011;66439;50.106;10.996;2023-07-29T03:45:36;0.30;;;0.30;;
77379;SDS011;66439;50.106;10.996;2023-07-29T03:47:43;0.40;;;0.40;;
77379;SDS011;66439;50.106;10.996;2023-07-29T03:49:49;0.10;;;0.10;;
77379;SDS011;66439;50.106;10.996;2023-07-29T03:53:57;0.20;;;0.20;;
77379;SDS011;66439;50.106;10.996;2023-07-29T03:56:00;0.20;;;0.20;;
77379;SDS011;66439;50.106;10.996;2023-07-29T03:58:02;0.10;;;0.10;;
77379;SDS011;66439;50.106;10.996;2023-07-29T04:00:05;0.10;;;0.10;;
77379;SDS011;66439;50.106;10.996;2023-07-29T04:02:16;0.40;;;0.40;;
77379;SDS011;66439;50.106;10.996;2023-07-29T04:04:19;0.20;;;0.20;;
77379;SDS011;66439;50.106;10.996;2023-07-29T04:06:22;0.30;;;0.30;;
77379;SDS011;66439;50.106;10.996;2023-07-29T04:08:26;0.10;;;0.10;;
77379;SDS011;66439;50.106;10.996;2023-07-29T04:10:28;0.10;;;0.10;;
77379;SDS011;66439;50.106;10.996;2023-07-29T04:12:34;0.00;;;0.00;;
77379;SDS011;66439;50.106;10.996;2023-07-29T04:14:36;0.10;;;0.10;;
77379;SDS011;66439;50.106;10.996;2023-07-29T04:16:40;0.20;;;0.20;;
77379;SDS011;66439;50.106;10.996;2023-07-29T04:18:43;0.10;;;0.10;;
77379;SDS011;66439;50.106;10.996;2023-07-29T04:20:46;0.10;;;0.10;;
77379;SDS011;66439;50.106;10.996;2023-07-29T04:22:49;0.50;;;0.50;;
77379;SDS011;66439;50.106;10.996;2023-07-29T04:24:52;0.30;;;0.30;;
77379;SDS011;66439;50.106;10.996;2023-07-29T04:26:54;0.20;;;0.20;;
77379;SDS011;66439;50.106;10.996;2023-07-29T04:28:57;0.30;;;0.30;;
77379;SDS011;66439;50.106;10.996;2023-07-29T04:31:01;0.80;;;0.80;;
77379;SDS011;66439;50.106;10.996;2023-07-29T04:33:03;0.30;;;0.30;;
77379;SDS011;66439;50.106;10.996;2023-07-29T04:35:06;0.20;;;0.20;;
77379;SDS011;66439;50.106;10.996;2023-07-29T04:37:11;0.20;;;0.20;;
77379;SDS011;66439;50.106;10.996;2023-07-29T04:39:14;0.30;;;0.30;;
77379;SDS011;66439;50.106;10.996;2023-07-29T04:41:17;0.20;;;0.20;;
77379;SDS011;66439;50.106;10.996;2023-07-29T04:43:20;0.30;;;0.30;;
77379;SDS011;66439;50.106;10.996;2023-07-29T04:45:22;0.10;;;0.10;;
77379;SDS011;66439;50.106;10.996;2023-07-29T04:47:25;0.20;;;0.20;;
77379;SDS011;66439;50.106;10.996;2023-07-29T04:49:28;0.30;;;0.30;;
77379;SDS011;66439;50.106;10.996;2023-07-29T04:51:31;0.20;;;0.20;;
77379;SDS011;66439;50.106;10.996;2023-07-29T04:53:34;0.40;;;0.40;;
77379;SDS011;66439;50.106;10.996;2023-07-29T04:55:41;0.20;;;0.20;;
77379;SDS011;66439;50.106;10.996;2023-07-29T04:57:44;0.10;;;0.10;;
77379;SDS011;66439;50.106;10.996;2023-07-29T04:59:47;0.20;;;0.20;;
77379;SDS011;66439;50.106;10.996;2023-07-29T05:01:49;0.30;;;0.30;;
77379;SDS011;66439;50.106;10.996;2023-07-29T05:03:56;0.20;;;0.20;;
77379;SDS011;66439;50.106;10.996;2023-07-29T05:06:01;0.70;;;0.70;;
77379;SDS011;66439;50.106;10.996;2023-07-29T05:08:04;0.50;;;0.50;;
77379;SDS011;66439;50.106;10.996;2023-07-29T05:10:07;0.60;;;0.60;;
77379;SDS011;66439;50.106;10.996;2023-07-29T05:12:10;0.10;;;0.10;;
77379;SDS011;66439;50.106;10.996;2023-07-29T05:14:13;0.20;;;0.20;;
77379;SDS011;66439;50.106;10.996;2023-07-29T05:16:19;0.10;;;0.10;;
77379;SDS011;66439;50.106;10.996;2023-07-29T05:18:30;0.10;;;0.10;;
77379;SDS011;66439;50.106;10.996;2023-07-29T05:20:33;0.30;;;0.30;;
77379;SDS011;66439;50.106;10.996;2023-07-29T05:22:37;0.10;;;0.10;;
77379;SDS011;66439;50.106;10.996;2023-07-29T05:24:39;0.30;;;0.30;;
77379;SDS011;66439;50.106;10.996;2023-07-29T05:26:42;0.40;;;0.40;;
77379;SDS011;66439;50.106;10.996;2023-07-29T05:28:44;0.40;;;0.40;;
77379;SDS011;66439;50.106;10.996;2023-07-29T05:30:47;0.30;;;0.30;;
77379;SDS011;66439;50.106;10.996;2023-07-29T05:32:50;0.30;;;0.30;;
77379;SDS011;66439;50.106;10.996;2023-07-29T05:34:52;0.30;;;0.30;;
77379;SDS011;66439;50.106;10.996;2023-07-29T05:36:55;0.10;;;0.10;;
77379;SDS011;66439;50.106;10.996;2023-07-29T05:39:13;0.20;;;0.20;;
77379;SDS011;66439;50.106;10.996;2023-07-29T05:41:17;0.20;;;0.20;;
77379;SDS011;66439;50.106;10.996;2023-07-29T05:43:20;0.10;;;0.10;;
77379;SDS011;66439;50.106;10.996;2023-07-29T05:45:23;0.20;;;0.20;;
77379;SDS011;66439;50.106;10.996;2023-07-29T05:47:26;0.00;;;0.00;;
77379;SDS011;66439;50.106;10.996;2023-07-29T05:49:28;0.20;;;0.20;;
77379;SDS011;66439;50.106;10.996;2023-07-29T05:51:31;0.20;;;0.20;;
77379;SDS011;66439;50.106;10.996;2023-07-29T05:53:34;0.60;;;0.60;;
77379;SDS011;66439;50.106;10.996;2023-07-29T05:55:39;0.30;;;0.30;;
77379;SDS011;66439;50.106;10.996;2023-07-29T05:57:42;0.40;;;0.40;;
77379;SDS011;66439;50.106;10.996;2023-07-29T05:59:45;0.70;;;0.70;;
77379;SDS011;66439;50.106;10.996;2023-07-29T06:01:48;0.20;;;0.20;;
77379;SDS011;66439;50.106;10.996;2023-07-29T06:03:51;0.40;;;0.40;;
77379;SDS011;66439;50.106;10.996;2023-07-29T06:05:55;0.20;;;0.20;;
77379;SDS011;66439;50.106;10.996;2023-07-29T06:07:58;0.10;;;0.10;;
77379;SDS011;66439;50.106;10.996;2023-07-29T06:10:01;0.20;;;0.20;;
77379;SDS011;66439;50.106;10.996;2023-07-29T06:12:35;0.10;;;0.10;;
77379;SDS011;66439;50.106;10.996;2023-07-29T06:14:37;0.10;;;0.10;;
77379;SDS011;66439;50.106;10.996;2023-07-29T06:16:40;0.20;;;0.20;;
77379;SDS011;66439;50.106;10.996;2023-07-29T06:18:43;0.00;;;0.00;;
77379;SDS011;66439;50.106;10.996;2023-07-29T06:20:45;0.20;;;0.20;;
77379;SDS011;66439;50.106;10.996;2023-07-29T06:22:48;0.20;;;0.20;;
77379;SDS011;66439;50.106;10.996;2023-07-29T06:24:52;0.10;;;0.10;;
77379;SDS011;66439;50.106;10.996;2023-07-29T06:26:55;0.20;;;0.20;;
77379;SDS011;66439;50.106;10.996;2023-07-29T06:28:57;0.10;;;0.10;;
77379;SDS011;66439;50.106;10.996;2023-07-29T06:31:00;0.20;;;0.20;;
77379;SDS011;66439;50.106;10.996;2023-07-29T06:33:04;0.40;;;0.40;;
77379;SDS011;66439;50.106;10.996;2023-07-29T06:35:08;0.30;;;0.30;;
77379;SDS011;66439;50.106;10.996;2023-07-29T06:37:10;0.10;;;0.10;;
77379;SDS011;66439;50.106;10.996;2023-07-29T06:39:22;0.20;;;0.20;;
77379;SDS011;66439;50.106;10.996;2023-07-29T06:41:32;0.30;;;0.30;;
77379;SDS011;66439;50.106;10.996;2023-07-29T06:43:37;0.50;;;0.50;;
77379;SDS011;66439;50.106;10.996;2023-07-29T06:45:40;0.40;;;0.40;;
77379;SDS011;66439;50.106;10.996;2023-07-29T06:47:43;0.30;;;0.30;;
77379;SDS011;66439;50.106;10.996;2023-07-29T06:49:46;0.50;;;0.50;;
77379;SDS011;66439;50.106;10.996;2023-07-29T06:51:48;0.00;;;0.00;;
77379;SDS011;66439;50.106;10.996;2023-07-29T06:53:51;0.20;;;0.20;;
77379;SDS011;66439;50.106;10.996;2023-07-29T06:55:54;0.30;;;0.30;;
77379;SDS011;66439;50.106;10.996;2023-07-29T06:57:57;0.20;;;0.20;;
77379;SDS011;66439;50.106;10.996;2023-07-29T06:59:59;0.40;;;0.40;;
77379;SDS011;66439;50.106;10.996;2023-07-29T07:02:02;0.20;;;0.20;;
77379;SDS011;66439;50.106;10.996;2023-07-29T07:04:05;0.10;;;0.10;;
77379;SDS011;66439;50.106;10.996;2023-07-29T07:06:08;0.30;;;0.30;;
77379;SDS011;66439;50.106;10.996;2023-07-29T07:08:11;0.30;;;0.30;;
77379;SDS011;66439;50.106;10.996;2023-07-29T07:10:23;0.10;;;0.10;;
77379;SDS011;66439;50.106;10.996;2023-07-29T07:12:26;0.40;;;0.40;;
77379;SDS011;66439;50.106;10.996;2023-07-29T07:14:28;0.20;;;0.20;;
77379;SDS011;66439;50.106;10.996;2023-07-29T07:16:31;0.30;;;0.30;;
77379;SDS011;66439;50.106;10.996;2023-07-29T07:18:34;0.30;;;0.30;;
77379;SDS011;66439;50.106;10.996;2023-07-29T07:20:37;0.30;;;0.30;;
77379;SDS011;66439;50.106;10.996;2023-07-29T07:22:39;0.10;;;0.10;;
77379;SDS011;66439;50.106;10.996;2023-07-29T07:24:42;0.10;;;0.10;;
77379;SDS011;66439;50.106;10.996;2023-07-29T07:26:46;0.40;;;0.40;;
77379;SDS011;66439;50.106;10.996;2023-07-29T07:28:49;0.20;;;0.20;;
77379;SDS011;66439;50.106;10.996;2023-07-29T07:30:51;0.30;;;0.30;;
77379;SDS011;66439;50.106;10.996;2023-07-29T07:32:54;0.50;;;0.50;;
77379;SDS011;66439;50.106;10.996;2023-07-29T07:34:56;0.30;;;0.30;;
77379;SDS011;66439;50.106;10.996;2023-07-29T07:36:59;0.20;;;0.20;;
77379;SDS011;66439;50.106;10.996;2023-07-29T07:39:03;0.20;;;0.20;;
77379;SDS011;66439;50.106;10.996;2023-07-29T07:41:05;0.10;;;0.10;;
77379;SDS011;66439;50.106;10.996;2023-07-29T07:43:08;0.10;;;0.10;;
77379;SDS011;66439;50.106;10.996;2023-07-29T07:45:10;0.10;;;0.10;;
77379;SDS011;66439;50.106;10.996;2023-07-29T07:47:13;0.20;;;0.20;;
77379;SDS011;66439;50.106;10.996;2023-07-29T07:49:16;0.60;;;0.60;;
77379;SDS011;66439;50.106;10.996;2023-07-29T07:51:18;0.00;;;0.00;;
77379;SDS011;66439;50.106;10.996;2023-07-29T07:53:21;0.00;;;0.00;;
77379;SDS011;66439;50.106;10.996;2023-07-29T07:55:23;0.70;;;0.70;;
77379;SDS011;66439;50.106;10.996;2023-07-29T07:57:26;0.40;;;0.40;;
77379;SDS011;66439;50.106;10.996;2023-07-29T07:59:29;0.20;;;0.20;;
77379;SDS011;66439;50.106;10.996;2023-07-29T08:01:34;0.20;;;0.20;;
77379;SDS011;66439;50.106;10.996;2023-07-29T08:03:38;0.30;;;0.30;;
77379;SDS011;66439;50.106;10.996;2023-07-29T08:05:41;0.30;;;0.30;;
77379;SDS011;66439;50.106;10.996;2023-07-29T08:07:44;0.40;;;0.40;;
77379;SDS011;66439;50.106;10.996;2023-07-29T08:09:46;0.30;;;0.30;;
77379;SDS011;66439;50.106;10.996;2023-07-29T08:11:49;0.30;;;0.30;;
77379;SDS011;66439;50.106;10.996;2023-07-29T08:13:52;0.50;;;0.50;;
77379;SDS011;66439;50.106;10.996;2023-07-29T08:15:55;0.20;;;0.20;;
77379;SDS011;66439;50.106;10.996;2023-07-29T08:17:58;0.30;;;0.30;;
77379;SDS011;66439;50.106;10.996;2023-07-29T08:20:00;0.30;;;0.30;;
77379;SDS011;66439;50.106;10.996;2023-07-29T08:22:03;0.20;;;0.20;;
77379;SDS011;66439;50.106;10.996;2023-07-29T08:24:06;0.20;;;0.20;;
77379;SDS011;66439;50.106;10.996;2023-07-29T08:26:09;0.20;;;0.20;;
77379;SDS011;66439;50.106;10.996;2023-07-29T08:28:12;0.20;;;0.20;;
77379;SDS011;66439;50.106;10.996;2023-07-29T08:30:15;0.20;;;0.20;;
77379;SDS011;66439;50.106;10.996;2023-07-29T08:32:18;0.20;;;0.20;;
77379;SDS011;66439;50.106;10.996;2023-07-29T08:34:21;0.20;;;0.20;;
77379;SDS011;66439;50.106;10.996;2023-07-29T08:36:24;0.60;;;0.60;;
77379;SDS011;66439;50.106;10.996;2023-07-29T08:38:28;0.20;;;0.20;;
77379;SDS011;66439;50.106;10.996;2023-07-29T08:40:31;0.60;;;0.60;;
77379;SDS011;66439;50.106;10.996;2023-07-29T08:42:48;0.30;;;0.30;;
77379;SDS011;66439;50.106;10.996;2023-07-29T08:44:51;0.30;;;0.30;;
77379;SDS011;66439;50.106;10.996;2023-07-29T08:46:57;0.20;;;0.20;;
77379;SDS011;66439;50.106;10.996;2023-07-29T08:49:00;0.20;;;0.20;;
77379;SDS011;66439;50.106;10.996;2023-07-29T08:51:04;0.20;;;0.20;;
77379;SDS011;66439;50.106;10.996;2023-07-29T08:53:07;0.10;;;0.10;;
77379;SDS011;66439;50.106;10.996;2023-07-29T08:55:10;0.00;;;0.00;;
77379;SDS011;66439;50.106;10.996;2023-07-29T08:57:13;0.10;;;0.10;;
77379;SDS011;66439;50.106;10.996;2023-07-29T08:59:16;0.30;;;0.30;;
77379;SDS011;66439;50.106;10.996;2023-07-29T09:01:19;0.20;;;0.20;;
77379;SDS011;66439;50.106;10.996;2023-07-29T09:03:22;0.30;;;0.30;;
77379;SDS011;66439;50.106;10.996;2023-07-29T09:05:24;0.10;;;0.10;;
77379;SDS011;66439;50.106;10.996;2023-07-29T09:07:27;0.30;;;0.30;;
77379;SDS011;66439;50.106;10.996;2023-07-29T09:09:31;0.30;;;0.30;;
77379;SDS011;66439;50.106;10.996;2023-07-29T09:11:33;0.40;;;0.40;;
77379;SDS011;66439;50.106;10.996;2023-07-29T09:13:37;0.30;;;0.30;;
77379;SDS011;66439;50.106;10.996;2023-07-29T09:15:39;0.40;;;0.40;;
77379;SDS011;66439;50.106;10.996;2023-07-29T09:20:30;1.00;;;1.00;;
77379;SDS011;66439;50.106;10.996;2023-07-29T09:22:33;1.00;;;1.00;;
77379;SDS011;66439;50.106;10.996;2023-07-29T09:24:39;1.50;;;1.40;;
77379;SDS011;66439;50.106;10.996;2023-07-29T09:26:48;1.90;;;1.80;;
77379;SDS011;66439;50.106;10.996;2023-07-29T09:28:57;1.00;;;1.00;;
77379;SDS011;66439;50.106;10.996;2023-07-29T09:31:01;0.70;;;0.70;;
77379;SDS011;66439;50.106;10.996;2023-07-29T09:33:04;0.80;;;0.80;;
77379;SDS011;66439;50.106;10.996;2023-07-29T09:35:11;1.10;;;1.10;;
77379;SDS011;66439;50.106;10.996;2023-07-29T09:37:21;1.70;;;1.60;;
77379;SDS011;66439;50.106;10.996;2023-07-29T09:39:26;0.80;;;0.80;;
77379;SDS011;66439;50.106;10.996;2023-07-29T09:41:30;0.90;;;0.90;;
77379;SDS011;66439;50.106;10.996;2023-07-29T09:43:34;1.80;;;1.70;;
77379;SDS011;66439;50.106;10.996;2023-07-29T09:45:39;0.80;;;0.80;;
77379;SDS011;66439;50.106;10.996;2023-07-29T09:47:45;1.10;;;1.10;;
77379;SDS011;66439;50.106;10.996;2023-07-29T09:49:50;1.30;;;1.20;;
77379;SDS011;66439;50.106;10.996;2023-07-29T09:51:55;1.50;;;1.40;;
77379;SDS011;66439;50.106;10.996;2023-07-29T09:54:01;0.90;;;0.90;;
77379;SDS011;66439;50.106;10.996;2023-07-29T09:58:09;1.20;;;1.10;;
77379;SDS011;66439;50.106;10.996;2023-07-29T10:00:13;0.90;;;0.90;;
77379;SDS011;66439;50.106;10.996;2023-07-29T10:02:17;0.40;;;0.40;;
77379;SDS011;66439;50.106;10.996;2023-07-29T10:04:20;0.70;;;0.70;;
77379;SDS011;66439;50.106;10.996;2023-07-29T10:06:24;0.70;;;0.70;;
77379;SDS011;66439;50.106;10.996;2023-07-29T10:08:29;0.70;;;0.70;;
77379;SDS011;66439;50.106;10.996;2023-07-29T10:10:35;0.50;;;0.50;;
77379;SDS011;66439;50.106;10.996;2023-07-29T10:12:39;0.70;;;0.70;;
77379;SDS011;66439;50.106;10.996;2023-07-29T10:14:45;0.70;;;0.70;;
77379;SDS011;66439;50.106;10.996;2023-07-29T10:16:50;0.80;;;0.80;;
77379;SDS011;66439;50.106;10.996;2023-07-29T10:19:00;0.50;;;0.50;;
77379;SDS011;66439;50.106;10.996;2023-07-29T10:21:04;0.60;;;0.60;;
77379;SDS011;66439;50.106;10.996;2023-07-29T10:23:08;0.80;;;0.80;;
77379;SDS011;66439;50.106;10.996;2023-07-29T10:27:24;0.70;;;0.70;;
77379;SDS011;66439;50.106;10.996;2023-07-29T10:29:31;1.60;;;1.50;;
77379;SDS011;66439;50.106;10.996;2023-07-29T10:31:43;1.20;;;1.20;;
77379;SDS011;66439;50.106;10.996;2023-07-29T10:33:48;0.80;;;0.80;;
77379;SDS011;66439;50.106;10.996;2023-07-29T10:35:53;0.90;;;0.90;;
77379;SDS011;66439;50.106;10.996;2023-07-29T10:37:57;0.70;;;0.70;;
77379;SDS011;66439;50.106;10.996;2023-07-29T10:40:00;0.70;;;0.70;;
77379;SDS011;66439;50.106;10.996;2023-07-29T10:42:08;0.60;;;0.60;;
77379;SDS011;66439;50.106;10.996;2023-07-29T10:46:44;1.20;;;1.20;;
77379;SDS011;66439;50.106;10.996;2023-07-29T10:48:55;0.90;;;0.90;;
77379;SDS011;66439;50.106;10.996;2023-07-29T10:53:31;0.90;;;0.90;;
77379;SDS011;66439;50.106;10.996;2023-07-29T10:55:35;1.80;;;1.70;;
77379;SDS011;66439;50.106;10.996;2023-07-29T10:57:40;0.70;;;0.70;;
77379;SDS011;66439;50.106;10.996;2023-07-29T10:59:55;0.90;;;0.90;;
77379;SDS011;66439;50.106;10.996;2023-07-29T11:01:58;0.80;;;0.80;;
77379;SDS011;66439;50.106;10.996;2023-07-29T11:06:24;1.60;;;1.50;;
77379;SDS011;66439;50.106;10.996;2023-07-29T11:08:28;1.60;;;1.50;;
77379;SDS011;66439;50.106;10.996;2023-07-29T11:10:42;0.90;;;0.90;;
77379;SDS011;66439;50.106;10.996;2023-07-29T11:12:49;0.60;;;0.60;;
77379;SDS011;66439;50.106;10.996;2023-07-29T11:14:54;1.20;;;1.20;;
77379;SDS011;66439;50.106;10.996;2023-07-29T11:16:58;1.10;;;1.10;;
77379;SDS011;66439;50.106;10.996;2023-07-29T11:19:01;1.30;;;1.20;;
77379;SDS011;66439;50.106;10.996;2023-07-29T11:21:08;0.80;;;0.80;;
77379;SDS011;66439;50.106;10.996;2023-07-29T11:23:12;1.40;;;1.30;;
77379;SDS011;66439;50.106;10.996;2023-07-29T11:25:16;1.30;;;1.20;;
77379;SDS011;66439;50.106;10.996;2023-07-29T11:27:20;0.80;;;0.80;;
77379;SDS011;66439;50.106;10.996;2023-07-29T11:29:24;0.80;;;0.80;;
77379;SDS011;66439;50.106;10.996;2023-07-29T11:31:38;0.60;;;0.60;;
77379;SDS011;66439;50.106;10.996;2023-07-29T11:33:57;0.90;;;0.90;;
77379;SDS011;66439;50.106;10.996;2023-07-29T11:36:03;0.70;;;0.70;;
77379;SDS011;66439;50.106;10.996;2023-07-29T11:38:14;0.70;;;0.70;;
77379;SDS011;66439;50.106;10.996;2023-07-29T11:40:22;1.60;;;1.50;;
77379;SDS011;66439;50.106;10.996;2023-07-29T11:42:26;0.50;;;0.50;;
77379;SDS011;66439;50.106;10.996;2023-07-29T11:44:30;1.00;;;1.00;;
77379;SDS011;66439;50.106;10.996;2023-07-29T11:46:34;1.30;;;1.20;;
77379;SDS011;66439;50.106;10.996;2023-07-29T11:48:40;1.30;;;1.30;;
77379;SDS011;66439;50.106;10.996;2023-07-29T11:50:50;1.40;;;1.30;;
77379;SDS011;66439;50.106;10.996;2023-07-29T11:52:54;1.10;;;1.10;;
77379;SDS011;66439;50.106;10.996;2023-07-29T11:55:00;0.90;;;0.90;;
77379;SDS011;66439;50.106;10.996;2023-07-29T11:57:08;0.90;;;0.90;;
77379;SDS011;66439;50.106;10.996;2023-07-29T11:59:15;0.90;;;0.90;;
77379;SDS011;66439;50.106;10.996;2023-07-29T12:01:19;1.10;;;1.10;;
77379;SDS011;66439;50.106;10.996;2023-07-29T12:03:25;0.90;;;0.90;;
77379;SDS011;66439;50.106;10.996;2023-07-29T12:07:35;1.30;;;1.20;;
77379;SDS011;66439;50.106;10.996;2023-07-29T12:09:44;1.70;;;1.60;;
77379;SDS011;66439;50.106;10.996;2023-07-29T12:12:10;0.80;;;0.80;;
77379;SDS011;66439;50.106;10.996;2023-07-29T12:14:13;0.60;;;0.60;;
77379;SDS011;66439;50.106;10.996;2023-07-29T12:16:25;0.70;;;0.70;;
77379;SDS011;66439;50.106;10.996;2023-07-29T12:18:39;1.20;;;1.10;;
77379;SDS011;66439;50.106;10.996;2023-07-29T12:20:42;1.00;;;1.00;;
77379;SDS011;66439;50.106;10.996;2023-07-29T12:22:44;1.00;;;1.00;;
77379;SDS011;66439;50.106;10.996;2023-07-29T12:24:50;0.70;;;0.70;;
77379;SDS011;66439;50.106;10.996;2023-07-29T12:26:57;0.70;;;0.70;;
77379;SDS011;66439;50.106;10.996;2023-07-29T12:29:10;0.80;;;0.80;;
77379;SDS011;66439;50.106;10.996;2023-07-29T12:31:18;0.70;;;0.70;;
77379;SDS011;66439;50.106;10.996;2023-07-29T12:35:37;0.80;;;0.80;;
77379;SDS011;66439;50.106;10.996;2023-07-29T12:37:44;0.90;;;0.90;;
77379;SDS011;66439;50.106;10.996;2023-07-29T12:39:49;0.70;;;0.70;;
77379;SDS011;66439;50.106;10.996;2023-07-29T12:41:53;1.00;;;1.00;;
77379;SDS011;66439;50.106;10.996;2023-07-29T12:43:58;0.80;;;0.80;;
77379;SDS011;66439;50.106;10.996;2023-07-29T12:46:02;0.90;;;0.90;;
77379;SDS011;66439;50.106;10.996;2023-07-29T12:48:07;0.90;;;0.90;;
77379;SDS011;66439;50.106;10.996;2023-07-29T12:50:12;1.60;;;1.50;;
77379;SDS011;66439;50.106;10.996;2023-07-29T12:52:17;2.70;;;2.50;;